sensor_id;sensor_type;location;lat;lon;timestamp;P1;durP1;ratioP1;P2;durP2;ratioP2
68076;SDS011;54866;53.458;14.540;2023-08-30T16:27:57;4.00;;;2.90;;
68076;SDS011;54866;53.458;14.540;2023-08-30T16:30:27;6.40;;;3.30;;
68076;SDS011;54866;53.458;14.540;2023-08-30T16:32:59;6.40;;;3.10;;
68076;SDS011;54866;53.458;14.540;2023-08-30T16:35:29;7.30;;;3.80;;
68076;SDS011;54866;53.458;14.540;2023-08-30T16:37:58;4.90;;;2.90;;
68076;SDS011;54866;53.458;14.540;2023-08-30T16:40:28;5.10;;;2.70;;
68076;SDS011;54866;53.458;14.540;2023-08-30T16:42:57;6.20;;;2.70;;
68076;SDS011;54866;53.458;14.540;2023-08-30T16:45:27;9.20;;;3.80;;
68076;SDS011;54866;53.458;14.540;2023-08-30T16:47:56;6.50;;;3.50;;
68076;SDS011;54866;53.458;14.540;2023-08-30T16:50:26;6.00;;;3.40;;
68076;SDS011;54866;53.458;14.540;2023-08-30T16:52:55;7.90;;;3.50;;
68076;SDS011;54866;53.458;14.540;2023-08-30T16:55:25;6.90;;;3.40;;
68076;SDS011;54866;53.458;14.540;2023-08-30T16:57:54;7.10;;;4.00;;
68076;SDS011;54866;53.458;14.540;2023-08-30T17:00:24;7.20;;;4.50;;
68076;SDS011;54866;53.458;14.540;2023-08-30T17:02:53;10.20;;;4.00;;
68076;SDS011;54866;53.458;14.540;2023-08-30T17:05:23;10.10;;;4.60;;
68076;SDS011;54866;53.458;14.540;2023-08-30T17:07:53;9.20;;;4.10;;
68076;SDS011;54866;53.458;14.540;2023-08-30T17:10:22;8.80;;;4.10;;
68076;SDS011;54866;53.458;14.540;2023-08-30T17:12:53;7.50;;;4.00;;
68076;SDS011;54866;53.458;14.540;2023-08-30T17:15:26;8.10;;;4.20;;
68076;SDS011;54866;53.458;14.540;2023-08-30T17:17:56;6.40;;;4.60;;
68076;SDS011;54866;53.458;14.540;2023-08-30T17:20:25;8.00;;;4.40;;
68076;SDS011;54866;53.458;14.540;2023-08-30T17:22:55;9.00;;;4.60;;
68076;SDS011;54866;53.458;14.540;2023-08-30T17:25:24;9.80;;;5.10;;
68076;SDS011;54866;53.458;14.540;2023-08-30T17:27:54;6.60;;;4.00;;
68076;SDS011;54866;53.458;14.540;2023-08-30T17:30:23;7.10;;;4.30;;
68076;SDS011;54866;53.458;14.540;2023-08-30T17:32:53;6.30;;;3.90;;
68076;SDS011;54866;53.458;14.540;2023-08-30T17:35:24;5.20;;;3.40;;
68076;SDS011;54866;53.458;14.540;2023-08-30T17:37:55;7.20;;;3.90;;
68076;SDS011;54866;53.458;14.540;2023-08-30T17:40:24;7.00;;;4.50;;
68076;SDS011;54866;53.458;14.540;2023-08-30T17:42:56;6.90;;;4.10;;
68076;SDS011;54866;53.458;14.540;2023-08-30T17:45:26;9.30;;;4.70;;
68076;SDS011;54866;53.458;14.540;2023-08-30T17:47:58;8.30;;;5.30;;
68076;SDS011;54866;53.458;14.540;2023-08-30T17:50:28;11.20;;;5.10;;
68076;SDS011;54866;53.458;14.540;2023-08-30T17:52:58;9.40;;;4.30;;
68076;SDS011;54866;53.458;14.540;2023-08-30T17:55:28;10.20;;;5.60;;
68076;SDS011;54866;53.458;14.540;2023-08-30T17:57:57;11.40;;;5.60;;
68076;SDS011;54866;53.458;14.540;2023-08-30T18:00:27;9.70;;;5.20;;
68076;SDS011;54866;53.458;14.540;2023-08-30T18:02:58;9.80;;;5.30;;
68076;SDS011;54866;53.458;14.540;2023-08-30T18:05:29;11.80;;;5.80;;
68076;SDS011;54866;53.458;14.540;2023-08-30T18:07:59;11.00;;;5.10;;
68076;SDS011;54866;53.458;14.540;2023-08-30T18:10:29;12.60;;;6.30;;
68076;SDS011;54866;53.458;14.540;2023-08-30T18:12:58;9.60;;;6.00;;
68076;SDS011;54866;53.458;14.540;2023-08-30T18:15:28;9.30;;;4.80;;
68076;SDS011;54866;53.458;14.540;2023-08-30T18:17:58;6.60;;;4.30;;
68076;SDS011;54866;53.458;14.540;2023-08-30T18:20:27;7.00;;;4.80;;
68076;SDS011;54866;53.458;14.540;2023-08-30T18:22:57;10.80;;;5.80;;
68076;SDS011;54866;53.458;14.540;2023-08-30T18:25:27;7.30;;;4.80;;
68076;SDS011;54866;53.458;14.540;2023-08-30T18:27:57;9.10;;;4.70;;
68076;SDS011;54866;53.458;14.540;2023-08-30T18:30:26;7.20;;;4.80;;
68076;SDS011;54866;53.458;14.540;2023-08-30T18:32:56;7.60;;;4.40;;
68076;SDS011;54866;53.458;14.540;2023-08-30T18:35:25;5.70;;;3.80;;
68076;SDS011;54866;53.458;14.540;2023-08-30T18:37:55;8.20;;;4.70;;
68076;SDS011;54866;53.458;14.540;2023-08-30T18:40:26;6.60;;;4.40;;
68076;SDS011;54866;53.458;14.540;2023-08-30T18:42:55;8.40;;;5.40;;
68076;SDS011;54866;53.458;14.540;2023-08-30T18:45:25;8.60;;;5.10;;
68076;SDS011;54866;53.458;14.540;2023-08-30T18:47:55;8.80;;;5.00;;
68076;SDS011;54866;53.458;14.540;2023-08-30T18:50:24;6.30;;;4.50;;
68076;SDS011;54866;53.458;14.540;2023-08-30T18:52:54;5.10;;;3.80;;
68076;SDS011;54866;53.458;14.540;2023-08-30T18:55:24;5.10;;;3.10;;
68076;SDS011;54866;53.458;14.540;2023-08-30T18:57:59;7.20;;;4.80;;
68076;SDS011;54866;53.458;14.540;2023-08-30T19:00:29;7.80;;;5.00;;
68076;SDS011;54866;53.458;14.540;2023-08-30T19:02:59;11.00;;;9.80;;
68076;SDS011;54866;53.458;14.540;2023-08-30T19:05:29;12.30;;;8.00;;
68076;SDS011;54866;53.458;14.540;2023-08-30T19:07:59;10.30;;;7.20;;
68076;SDS011;54866;53.458;14.540;2023-08-30T19:10:28;7.60;;;5.60;;
68076;SDS011;54866;53.458;14.540;2023-08-30T19:12:58;7.10;;;4.60;;
68076;SDS011;54866;53.458;14.540;2023-08-30T19:15:27;9.00;;;4.50;;
68076;SDS011;54866;53.458;14.540;2023-08-30T19:17:57;6.60;;;5.20;;
68076;SDS011;54866;53.458;14.540;2023-08-30T19:20:27;7.80;;;5.30;;
68076;SDS011;54866;53.458;14.540;2023-08-30T19:22:57;9.20;;;5.70;;
68076;SDS011;54866;53.458;14.540;2023-08-30T19:25:27;9.80;;;5.50;;
68076;SDS011;54866;53.458;14.540;2023-08-30T19:27:59;13.40;;;7.30;;
68076;SDS011;54866;53.458;14.540;2023-08-30T19:30:28;10.80;;;4.80;;
68076;SDS011;54866;53.458;14.540;2023-08-30T19:32:58;6.60;;;5.50;;
68076;SDS011;54866;53.458;14.540;2023-08-30T19:35:28;8.20;;;5.70;;
68076;SDS011;54866;53.458;14.540;2023-08-30T19:37:57;10.20;;;5.30;;
68076;SDS011;54866;53.458;14.540;2023-08-30T19:40:27;10.20;;;5.40;;
68076;SDS011;54866;53.458;14.540;2023-08-30T19:42:56;7.60;;;5.00;;
68076;SDS011;54866;53.458;14.540;2023-08-30T19:45:26;6.80;;;4.60;;
68076;SDS011;54866;53.458;14.540;2023-08-30T19:47:56;7.70;;;4.70;;
68076;SDS011;54866;53.458;14.540;2023-08-30T19:50:26;7.30;;;4.20;;
68076;SDS011;54866;53.458;14.540;2023-08-30T19:52:55;10.50;;;4.40;;
68076;SDS011;54866;53.458;14.540;2023-08-30T19:55:30;13.10;;;8.10;;
68076;SDS011;54866;53.458;14.540;2023-08-30T19:57:59;21.70;;;5.90;;
68076;SDS011;54866;53.458;14.540;2023-08-30T20:00:32;13.30;;;5.30;;
68076;SDS011;54866;53.458;14.540;2023-08-30T20:03:02;12.00;;;5.00;;
68076;SDS011;54866;53.458;14.540;2023-08-30T20:05:32;16.60;;;5.50;;
68076;SDS011;54866;53.458;14.540;2023-08-30T20:08:02;16.60;;;5.80;;
68076;SDS011;54866;53.458;14.540;2023-08-30T20:10:32;11.80;;;4.40;;
68076;SDS011;54866;53.458;14.540;2023-08-30T21:13:08;11.60;;;6.50;;
68076;SDS011;54866;53.458;14.540;2023-08-30T21:15:38;11.10;;;6.60;;
68076;SDS011;54866;53.458;14.540;2023-08-30T21:18:07;7.70;;;5.90;;
68076;SDS011;54866;53.458;14.540;2023-08-30T21:20:37;6.80;;;5.70;;
68076;SDS011;54866;53.458;14.540;2023-08-30T21:23:07;11.20;;;7.10;;
68076;SDS011;54866;53.458;14.540;2023-08-30T21:25:37;9.20;;;6.20;;
68076;SDS011;54866;53.458;14.540;2023-08-30T21:28:09;7.50;;;6.20;;
68076;SDS011;54866;53.458;14.540;2023-08-30T21:30:38;10.10;;;7.80;;
68076;SDS011;54866;53.458;14.540;2023-08-30T21:33:09;8.30;;;5.60;;
68076;SDS011;54866;53.458;14.540;2023-08-30T21:35:41;7.90;;;6.50;;
68076;SDS011;54866;53.458;14.540;2023-08-30T21:38:13;9.00;;;6.50;;
68076;SDS011;54866;53.458;14.540;2023-08-30T21:40:43;9.20;;;5.90;;
68076;SDS011;54866;53.458;14.540;2023-08-30T21:43:14;7.00;;;5.50;;
68076;SDS011;54866;53.458;14.540;2023-08-30T21:45:44;8.10;;;5.90;;
68076;SDS011;54866;53.458;14.540;2023-08-30T21:48:13;7.50;;;4.80;;
68076;SDS011;54866;53.458;14.540;2023-08-30T21:50:43;7.60;;;6.10;;
68076;SDS011;54866;53.458;14.540;2023-08-30T21:53:12;10.90;;;6.30;;
68076;SDS011;54866;53.458;14.540;2023-08-30T21:55:42;7.10;;;5.70;;
68076;SDS011;54866;53.458;14.540;2023-08-30T21:58:12;7.90;;;5.70;;
68076;SDS011;54866;53.458;14.540;2023-08-30T22:00:41;8.50;;;6.30;;
68076;SDS011;54866;53.458;14.540;2023-08-30T22:03:11;7.90;;;5.80;;
68076;SDS011;54866;53.458;14.540;2023-08-30T22:05:40;8.10;;;6.40;;
68076;SDS011;54866;53.458;14.540;2023-08-30T22:08:10;7.50;;;6.80;;
68076;SDS011;54866;53.458;14.540;2023-08-30T22:10:40;8.20;;;7.00;;
68076;SDS011;54866;53.458;14.540;2023-08-30T22:13:10;12.50;;;6.70;;
68076;SDS011;54866;53.458;14.540;2023-08-30T22:15:39;9.80;;;6.00;;
68076;SDS011;54866;53.458;14.540;2023-08-30T22:18:09;6.70;;;5.90;;
68076;SDS011;54866;53.458;14.540;2023-08-30T22:20:38;8.70;;;6.40;;
68076;SDS011;54866;53.458;14.540;2023-08-30T22:23:08;7.30;;;6.20;;
68076;SDS011;54866;53.458;14.540;2023-08-30T22:25:39;6.90;;;6.20;;
68076;SDS011;54866;53.458;14.540;2023-08-30T22:28:08;8.50;;;7.00;;
68076;SDS011;54866;53.458;14.540;2023-08-30T22:30:38;9.50;;;7.30;;
68076;SDS011;54866;53.458;14.540;2023-08-30T22:33:08;9.40;;;8.10;;
68076;SDS011;54866;53.458;14.540;2023-08-30T22:35:38;7.20;;;6.50;;
68076;SDS011;54866;53.458;14.540;2023-08-30T22:38:09;6.60;;;5.80;;
68076;SDS011;54866;53.458;14.540;2023-08-30T22:40:38;6.70;;;6.10;;
68076;SDS011;54866;53.458;14.540;2023-08-30T22:43:09;7.60;;;6.50;;
68076;SDS011;54866;53.458;14.540;2023-08-30T22:45:38;9.80;;;6.40;;
68076;SDS011;54866;53.458;14.540;2023-08-30T22:48:08;8.00;;;6.50;;
68076;SDS011;54866;53.458;14.540;2023-08-30T22:50:37;7.70;;;6.20;;
68076;SDS011;54866;53.458;14.540;2023-08-30T22:53:07;8.30;;;6.20;;
68076;SDS011;54866;53.458;14.540;2023-08-30T22:55:37;7.60;;;6.40;;
68076;SDS011;54866;53.458;14.540;2023-08-30T22:58:09;7.50;;;6.20;;
68076;SDS011;54866;53.458;14.540;2023-08-30T23:00:39;8.00;;;6.70;;
68076;SDS011;54866;53.458;14.540;2023-08-30T23:03:09;7.30;;;6.60;;
68076;SDS011;54866;53.458;14.540;2023-08-30T23:05:38;9.20;;;7.00;;
68076;SDS011;54866;53.458;14.540;2023-08-30T23:08:08;8.40;;;7.50;;
68076;SDS011;54866;53.458;14.540;2023-08-30T23:10:38;8.80;;;6.80;;
68076;SDS011;54866;53.458;14.540;2023-08-30T23:13:10;12.10;;;7.60;;
68076;SDS011;54866;53.458;14.540;2023-08-30T23:15:40;13.20;;;8.00;;
68076;SDS011;54866;53.458;14.540;2023-08-30T23:18:10;7.20;;;6.50;;
68076;SDS011;54866;53.458;14.540;2023-08-30T23:20:40;8.90;;;7.30;;
68076;SDS011;54866;53.458;14.540;2023-08-30T23:23:10;8.40;;;7.40;;
68076;SDS011;54866;53.458;14.540;2023-08-30T23:25:39;10.00;;;6.80;;
68076;SDS011;54866;53.458;14.540;2023-08-30T23:28:09;11.60;;;8.20;;
68076;SDS011;54866;53.458;14.540;2023-08-30T23:30:40;9.30;;;8.00;;
68076;SDS011;54866;53.458;14.540;2023-08-30T23:33:09;9.00;;;7.20;;
68076;SDS011;54866;53.458;14.540;2023-08-30T23:35:40;8.90;;;7.00;;
68076;SDS011;54866;53.458;14.540;2023-08-30T23:38:10;9.50;;;7.60;;
68076;SDS011;54866;53.458;14.540;2023-08-30T23:40:39;8.00;;;6.50;;
68076;SDS011;54866;53.458;14.540;2023-08-30T23:43:09;10.50;;;7.00;;
68076;SDS011;54866;53.458;14.540;2023-08-30T23:45:39;8.30;;;6.10;;
68076;SDS011;54866;53.458;14.540;2023-08-30T23:48:09;13.40;;;6.50;;
68076;SDS011;54866;53.458;14.540;2023-08-30T23:50:38;6.80;;;5.80;;
68076;SDS011;54866;53.458;14.540;2023-08-30T23:53:09;9.40;;;6.60;;
68076;SDS011;54866;53.458;14.540;2023-08-30T23:55:38;6.80;;;6.10;;
68076;SDS011;54866;53.458;14.540;2023-08-30T23:58:09;9.30;;;6.90;;
